Time;durP1;ratioP1;P1;durP2;ratioP2;P2;SDS_P1;SDS_P2;PMS_P1;PMS_P2;Temp;Humidity;BMP_temperature;BMP_pressure;BME280_temperature;BME280_humidity;BME280_pressure;Samples;Min_cycle;Max_cycle;Signal;HPM_P1;HPM_P2
2023/09/27 00:00:20;;;;;;;51.05;46.90;;;13.60;99.90;;;;;;6209443;23;20120;-81
2023/09/27 00:02:46;;;;;;;51.00;46.65;;;13.60;99.90;;;;;;6209518;23;20013;-81
2023/09/27 00:05:12;;;;;;;48.85;44.70;;;13.60;99.90;;;;;;6209397;23;20509;-81
2023/09/27 00:07:39;;;;;;;51.72;47.35;;;13.70;99.90;;;;;;6211121;23;20012;-81
2023/09/27 00:10:07;;;;;;;50.38;46.00;;;13.60;99.90;;;;;;6209275;23;20013;-81
2023/09/27 00:12:33;;;;;;;50.80;46.28;;;13.60;99.90;;;;;;6208762;23;20363;-81
2023/09/27 00:15:01;;;;;;;52.42;47.85;;;13.60;99.90;;;;;;6212983;23;20418;-81
2023/09/27 00:17:28;;;;;;;61.22;56.00;;;13.60;99.90;;;;;;6189233;23;20012;-81
2023/09/27 00:19:53;;;;;;;56.33;51.47;;;13.50;99.90;;;;;;6214832;23;20410;-81
2023/09/27 00:22:19;;;;;;;49.97;45.88;;;13.50;99.90;;;;;;6189326;23;20012;-81
2023/09/27 00:24:45;;;;;;;57.13;52.20;;;13.50;99.90;;;;;;6214705;23;20028;-81
2023/09/27 00:27:11;;;;;;;57.33;52.28;;;13.50;99.90;;;;;;6213958;23;20407;-81
2023/09/27 00:29:37;;;;;;;50.30;46.10;;;13.50;99.90;;;;;;6214414;23;20047;-81
2023/09/27 00:32:03;;;;;;;53.13;48.72;;;13.50;99.90;;;;;;6214592;23;20307;-81
2023/09/27 00:34:28;;;;;;;55.47;50.42;;;13.50;99.90;;;;;;6239683;23;20019;-81
2023/09/27 00:36:54;;;;;;;60.95;56.03;;;13.50;99.90;;;;;;6214410;23;20008;-81
2023/09/27 00:39:20;;;;;;;54.45;49.83;;;13.50;99.90;;;;;;6241401;23;20079;-81
2023/09/27 00:41:45;;;;;;;51.15;46.83;;;13.50;99.90;;;;;;6213611;23;20066;-81
2023/09/27 00:44:11;;;;;;;54.53;49.78;;;13.50;99.90;;;;;;6214322;23;20095;-81
2023/09/27 00:46:38;;;;;;;63.78;58.38;;;13.50;99.90;;;;;;6239417;23;20019;-81
2023/09/27 00:49:05;;;;;;;56.97;51.83;;;13.50;99.90;;;;;;6214024;23;20012;-82
2023/09/27 00:51:31;;;;;;;52.03;47.45;;;13.50;99.90;;;;;;6214384;23;20016;-81
2023/09/27 00:53:58;;;;;;;63.65;58.28;;;13.50;99.90;;;;;;6214304;23;20027;-81
2023/09/27 00:56:25;;;;;;;64.20;59.03;;;13.40;99.90;;;;;;6213656;23;20044;-81
2023/09/27 00:58:52;;;;;;;52.97;48.25;;;13.40;99.90;;;;;;6189028;23;20016;-81
2023/09/27 01:01:18;;;;;;;50.80;46.10;;;13.40;99.90;;;;;;6214010;23;20016;-81
2023/09/27 01:03:44;;;;;;;55.95;51.35;;;13.40;99.90;;;;;;6213842;23;20350;-81
2023/09/27 01:06:11;;;;;;;55.83;50.75;;;13.40;99.90;;;;;;6189072;23;20023;-81
2023/09/27 01:08:37;;;;;;;57.80;52.60;;;13.40;99.90;;;;;;6214467;23;20091;-81
2023/09/27 01:11:03;;;;;;;58.33;53.20;;;13.40;99.90;;;;;;6213605;23;20109;-81
2023/09/27 01:13:29;;;;;;;62.00;56.53;;;13.40;99.90;;;;;;6188946;23;20498;-81
2023/09/27 01:15:55;;;;;;;55.28;50.25;;;13.40;99.90;;;;;;6199328;23;20093;-81
2023/09/27 01:18:21;;;;;;;51.72;46.85;;;13.30;99.90;;;;;;6213987;23;20024;-81
2023/09/27 01:20:46;;;;;;;62.40;57.20;;;13.30;99.90;;;;;;6213957;23;20020;-81
2023/09/27 01:23:12;;;;;;;59.92;54.78;;;13.70;99.90;;;;;;6188896;23;20051;-81
2023/09/27 01:25:39;;;;;;;58.75;53.90;;;13.30;99.90;;;;;;6213181;23;20020;-81
2023/09/27 01:28:11;;;;;;;54.95;49.85;;;13.30;99.90;;;;;;6213657;23;20230;-81
2023/09/27 01:30:38;;;;;;;62.55;57.03;;;12.80;99.90;;;;;;6213924;23;20016;-81
2023/09/27 01:33:06;;;;;;;62.03;56.42;;;13.20;99.90;;;;;;6213629;23;20470;-81
2023/09/27 01:35:36;;;;;;;54.40;49.65;;;13.20;99.90;;;;;;6213815;23;20091;-81
2023/09/27 01:38:03;;;;;;;55.30;50.40;;;13.20;99.90;;;;;;6212398;23;20012;-81
2023/09/27 01:40:32;;;;;;;60.83;55.33;;;13.20;99.90;;;;;;6213666;23;20018;-81
2023/09/27 01:42:59;;;;;;;61.97;56.78;;;13.10;99.90;;;;;;6213669;23;20027;-81
2023/09/27 01:45:26;;;;;;;62.47;57.03;;;13.10;99.90;;;;;;6213777;23;20012;-81
2023/09/27 01:47:51;;;;;;;59.72;54.15;;;13.10;99.90;;;;;;6213685;23;20339;-81
2023/09/27 01:50:23;;;;;;;61.28;56.10;;;13.70;99.90;;;;;;6213980;23;20019;-82
2023/09/27 01:52:53;;;;;;;63.90;58.45;;;13.10;99.90;;;;;;6213150;23;20105;-81
2023/09/27 01:55:19;;;;;;;56.65;51.72;;;13.10;99.90;;;;;;6213889;23;20170;-81
2023/09/27 01:57:47;;;;;;;68.88;62.78;;;13.10;99.90;;;;;;6213467;23;20615;-81
2023/09/27 02:00:18;;;;;;;68.97;62.97;;;13.00;99.90;;;;;;6213674;23;20334;-81
2023/09/27 02:02:49;;;;;;;66.63;60.83;;;13.00;99.90;;;;;;6213723;23;20016;-81
2023/09/27 02:05:15;;;;;;;61.97;56.80;;;13.30;99.90;;;;;;6213616;23;20470;-81
2023/09/27 02:07:41;;;;;;;58.58;53.20;;;13.00;99.90;;;;;;6240187;23;20031;-81
2023/09/27 02:10:11;;;;;;;63.45;57.53;;;13.00;99.90;;;;;;6188344;23;20054;-81
2023/09/27 02:12:38;;;;;;;60.25;54.95;;;13.00;99.90;;;;;;6213437;23;20019;-81
2023/09/27 02:15:05;;;;;;;59.70;53.70;;;13.00;99.90;;;;;;6213290;23;20024;-81
2023/09/27 02:17:31;;;;;;;59.38;53.88;;;12.90;99.90;;;;;;6213786;23;20023;-81
2023/09/27 02:19:56;;;;;;;64.63;58.72;;;12.90;99.90;;;;;;6239154;23;20008;-81
2023/09/27 02:22:23;;;;;;;74.75;68.72;;;13.40;99.90;;;;;;6212850;23;20521;-81
2023/09/27 02:24:49;;;;;;;77.60;71.10;;;13.00;99.90;;;;;;6238875;23;20019;-81
2023/09/27 02:27:15;;;;;;;70.45;64.55;;;13.30;99.90;;;;;;6213575;23;20136;-81
2023/09/27 02:29:44;;;;;;;57.70;52.33;;;12.80;99.90;;;;;;6213625;23;20061;-81
2023/09/27 02:32:09;;;;;;;72.47;66.43;;;12.90;99.90;;;;;;6213800;23;20027;-81
2023/09/27 02:34:35;;;;;;;70.88;64.70;;;13.00;99.90;;;;;;6213525;23;20042;-80
2023/09/27 02:37:02;;;;;;;62.88;57.22;;;12.90;99.90;;;;;;6212886;23;20016;-80
2023/09/27 02:39:28;;;;;;;73.15;66.90;;;12.80;99.90;;;;;;6213834;23;20012;-81
2023/09/27 02:41:56;;;;;;;64.88;58.85;;;12.80;99.90;;;;;;6188228;23;20529;-81
2023/09/27 02:44:22;;;;;;;70.43;64.40;;;12.80;99.90;;;;;;6213484;23;20017;-81
2023/09/27 02:46:48;;;;;;;70.10;64.18;;;12.80;99.90;;;;;;6238761;23;20079;-81
2023/09/27 02:49:14;;;;;;;65.32;59.55;;;12.80;99.90;;;;;;6213385;23;20055;-81
2023/09/27 02:51:40;;;;;;;72.15;65.75;;;13.00;99.90;;;;;;6212897;23;20019;-81
2023/09/27 02:54:10;;;;;;;59.90;54.65;;;12.90;99.90;;;;;;6213740;23;20325;-81
2023/09/27 02:56:36;;;;;;;67.50;61.60;;;12.80;99.90;;;;;;6213389;23;20079;-81
2023/09/27 02:59:02;;;;;;;73.70;67.82;;;12.80;99.90;;;;;;6188892;23;20051;-81
2023/09/27 03:01:29;;;;;;;66.78;61.03;;;12.70;99.90;;;;;;6238746;23;20027;-81
2023/09/27 03:03:55;;;;;;;68.15;62.03;;;12.70;99.90;;;;;;6213494;23;20016;-81
2023/09/27 03:06:21;;;;;;;74.15;67.88;;;12.70;99.90;;;;;;6237817;23;20090;-81
2023/09/27 03:08:48;;;;;;;70.93;64.68;;;12.70;99.90;;;;;;6188644;23;20016;-81
2023/09/27 03:11:14;;;;;;;70.30;64.55;;;12.70;99.90;;;;;;6215268;23;20264;-81
2023/09/27 03:13:43;;;;;;;64.20;58.92;;;12.70;99.90;;;;;;6241983;23;20289;-81
2023/09/27 03:16:10;;;;;;;71.80;65.70;;;12.70;99.90;;;;;;6214876;23;20055;-81
2023/09/27 03:18:36;;;;;;;74.00;67.82;;;12.70;99.90;;;;;;6214978;23;20024;-81
2023/09/27 03:21:01;;;;;;;68.80;62.28;;;12.70;99.90;;;;;;6238797;23;20019;-81
2023/09/27 03:23:27;;;;;;;70.78;64.72;;;12.80;99.90;;;;;;6215374;23;20012;-81
2023/09/27 03:25:55;;;;;;;68.00;61.80;;;12.70;99.90;;;;;;6214162;23;20062;-81
2023/09/27 03:28:22;;;;;;;72.22;66.05;;;12.70;99.90;;;;;;6240058;23;20008;-81
2023/09/27 03:30:48;;;;;;;64.07;58.78;;;12.60;99.90;;;;;;6240485;23;20211;-81
2023/09/27 03:33:13;;;;;;;67.20;61.58;;;13.00;99.90;;;;;;6215175;23;20301;-81
2023/09/27 03:35:40;;;;;;;75.38;68.88;;;12.60;99.90;;;;;;6214338;23;20016;-81
2023/09/27 03:38:05;;;;;;;68.20;62.40;;;12.60;99.90;;;;;;6215126;23;20142;-81
2023/09/27 03:40:32;;;;;;;69.53;63.50;;;12.60;99.90;;;;;;6214859;23;20260;-81
2023/09/27 03:42:57;;;;;;;74.57;68.22;;;12.70;99.90;;;;;;6240063;23;20023;-81
2023/09/27 03:45:23;;;;;;;75.93;69.25;;;12.60;99.90;;;;;;6241699;23;20015;-81
2023/09/27 03:47:49;;;;;;;71.30;64.72;;;12.50;99.90;;;;;;6214769;23;20095;-81
2023/09/27 03:50:15;;;;;;;70.53;63.88;;;12.50;99.90;;;;;;6239493;23;20012;-81
2023/09/27 03:52:41;;;;;;;83.68;75.93;;;12.50;99.90;;;;;;6214647;23;20020;-81
2023/09/27 03:55:08;;;;;;;77.90;71.03;;;12.90;99.90;;;;;;6214783;23;20016;-81
2023/09/27 03:57:35;;;;;;;79.55;72.85;;;12.50;99.90;;;;;;6217203;23;20012;-81
2023/09/27 04:00:01;;;;;;;73.30;66.60;;;12.40;99.90;;;;;;6218635;23;20016;-81
2023/09/27 04:02:27;;;;;;;76.68;70.03;;;12.40;99.90;;;;;;6241458;23;20178;-81
2023/09/27 04:04:53;;;;;;;80.15;73.07;;;12.70;99.90;;;;;;6214134;23;20339;-81
2023/09/27 04:07:19;;;;;;;73.85;67.25;;;12.40;99.90;;;;;;6243238;23;20451;-81
2023/09/27 04:09:45;;;;;;;81.20;73.85;;;12.40;99.90;;;;;;6239777;23;20023;-82
2023/09/27 04:12:11;;;;;;;74.25;67.47;;;12.40;99.90;;;;;;6239926;23;20014;-82
2023/09/27 04:14:38;;;;;;;80.90;73.82;;;12.30;99.90;;;;;;6188336;23;20051;-82
2023/09/27 04:17:04;;;;;;;81.90;74.57;;;12.40;99.90;;;;;;6184320;23;20062;-81
2023/09/27 04:19:31;;;;;;;84.32;76.90;;;12.90;99.90;;;;;;6234283;23;20027;-82
2023/09/27 04:21:57;;;;;;;79.13;71.78;;;12.30;99.90;;;;;;6209942;23;20084;-81
2023/09/27 04:24:23;;;;;;;80.70;73.60;;;12.40;99.90;;;;;;6234331;23;20114;-82
2023/09/27 04:26:49;;;;;;;79.25;71.88;;;12.30;99.90;;;;;;6234709;23;20084;-81
2023/09/27 04:29:15;;;;;;;79.65;72.45;;;12.30;99.90;;;;;;6234827;23;20044;-80
2023/09/27 04:31:40;;;;;;;75.95;69.32;;;12.30;99.90;;;;;;6209392;23;20200;-80
2023/09/27 04:34:06;;;;;;;86.10;78.60;;;12.30;99.90;;;;;;6234190;23;20493;-81
2023/09/27 04:36:32;;;;;;;77.45;70.10;;;12.30;99.90;;;;;;6209389;23;20773;-81
2023/09/27 04:38:58;;;;;;;77.25;70.05;;;12.30;99.90;;;;;;6234812;23;20023;-81
2023/09/27 04:41:24;;;;;;;83.32;75.22;;;12.20;99.90;;;;;;6210779;23;20005;-81
2023/09/27 04:43:49;;;;;;;81.28;74.07;;;12.40;99.90;;;;;;6210869;23;20348;-81
2023/09/27 04:46:17;;;;;;;80.35;72.95;;;12.40;99.90;;;;;;6209769;23;20436;-81
2023/09/27 04:48:43;;;;;;;76.90;69.82;;;12.20;99.90;;;;;;6210469;23;20024;-81
2023/09/27 04:51:09;;;;;;;82.53;74.65;;;12.50;99.90;;;;;;6234171;23;20371;-81
2023/09/27 04:53:37;;;;;;;74.88;67.63;;;12.20;99.90;;;;;;6234998;23;20050;-82
2023/09/27 04:56:12;;;;;;;84.30;76.10;;;12.60;99.90;;;;;;6206637;23;20036;-82
2023/09/27 04:58:39;;;;;;;71.57;64.75;;;12.20;99.90;;;;;;6232551;23;20489;-81
2023/09/27 05:01:05;;;;;;;78.60;71.28;;;12.10;99.90;;;;;;6232864;23;20020;-83
2023/09/27 05:03:31;;;;;;;81.60;73.82;;;12.20;99.90;;;;;;6234089;23;20329;-81
2023/09/27 05:05:57;;;;;;;79.70;72.20;;;12.10;99.90;;;;;;6233694;23;20075;-81
2023/09/27 05:08:24;;;;;;;79.32;71.28;;;12.30;99.90;;;;;;6209305;23;20020;-81
2023/09/27 05:10:50;;;;;;;82.53;74.20;;;12.10;99.90;;;;;;6233799;23;20019;-81
2023/09/27 05:13:16;;;;;;;77.97;70.75;;;12.10;99.90;;;;;;6230989;23;20096;-81
2023/09/27 05:15:42;;;;;;;78.63;71.25;;;12.10;99.90;;;;;;6231120;23;20367;-82
2023/09/27 05:18:07;;;;;;;79.18;71.63;;;12.10;99.90;;;;;;6230753;23;20024;-82
2023/09/27 05:20:35;;;;;;;82.80;74.80;;;12.10;99.90;;;;;;6206581;23;20025;-81
2023/09/27 05:23:01;;;;;;;85.90;78.20;;;12.60;99.90;;;;;;6233467;23;20447;-86
2023/09/27 05:25:27;;;;;;;83.60;75.88;;;12.10;99.90;;;;;;6233964;23;20055;-85
2023/09/27 05:27:52;;;;;;;88.00;79.38;;;12.90;99.90;;;;;;6233358;23;20347;-83
2023/09/27 05:30:21;;;;;;;79.05;71.05;;;12.10;99.90;;;;;;6233251;23;20013;-83
2023/09/27 05:32:47;;;;;;;85.38;77.35;;;12.60;99.90;;;;;;6183422;23;20017;-82
2023/09/27 05:35:13;;;;;;;78.72;71.50;;;12.20;99.90;;;;;;6233964;23;20220;-83
2023/09/27 05:37:44;;;;;;;79.25;71.28;;;12.20;99.90;;;;;;6209179;23;20021;-82
2023/09/27 05:40:10;;;;;;;84.30;75.22;;;12.20;99.90;;;;;;6233986;23;20009;-83
2023/09/27 05:42:37;;;;;;;75.80;68.20;;;12.40;99.90;;;;;;6208875;23;20020;-83
2023/09/27 05:45:04;;;;;;;80.40;71.88;;;12.40;99.90;;;;;;6208702;23;20012;-84
2023/09/27 05:47:30;;;;;;;76.65;68.80;;;12.50;99.90;;;;;;6237271;23;20017;-86
2023/09/27 05:49:56;;;;;;;78.47;70.93;;;12.60;99.90;;;;;;6193991;23;20043;-85
2023/09/27 05:52:22;;;;;;;81.22;73.32;;;12.60;99.90;;;;;;6245521;23;20160;-86
2023/09/27 05:54:48;;;;;;;73.18;66.28;;;12.70;99.90;;;;;;6191622;23;20340;-83
2023/09/27 05:57:14;;;;;;;76.10;68.50;;;12.70;99.90;;;;;;6239390;23;20012;-84
2023/09/27 05:59:44;;;;;;;76.13;68.53;;;12.80;99.90;;;;;;6241199;23;20325;-84
2023/09/27 06:02:16;;;;;;;80.22;71.63;;;12.80;99.90;;;;;;6190278;23;20040;-84
2023/09/27 06:04:46;;;;;;;81.13;73.30;;;12.90;99.90;;;;;;6189826;23;20012;-85
2023/09/27 06:07:17;;;;;;;73.95;66.72;;;12.90;99.90;;;;;;6194825;23;20009;-85
2023/09/27 06:09:43;;;;;;;65.72;58.70;;;13.00;99.90;;;;;;6221887;23;20013;-85
2023/09/27 06:12:10;;;;;;;64.00;56.90;;;13.00;99.90;;;;;;6197655;23;20042;-87
2023/09/27 06:14:36;;;;;;;72.22;65.38;;;13.00;99.90;;;;;;6199051;23;20012;-86
2023/09/27 06:17:06;;;;;;;74.63;66.93;;;13.10;99.90;;;;;;6248472;23;20043;-86
2023/09/27 06:19:32;;;;;;;73.85;66.85;;;13.10;99.90;;;;;;6199129;23;20020;-86
2023/09/27 06:21:58;;;;;;;64.05;57.97;;;13.50;99.90;;;;;;6199260;23;20343;-86
2023/09/27 06:24:26;;;;;;;71.03;64.57;;;13.40;99.90;;;;;;6198669;23;20019;-86
2023/09/27 06:26:54;;;;;;;71.07;64.30;;;13.20;99.90;;;;;;6198623;23;20043;-85
2023/09/27 06:29:20;;;;;;;76.05;68.70;;;13.20;99.90;;;;;;6224326;23;20040;-87
2023/09/27 06:31:53;;;;;;;68.60;61.60;;;13.30;99.90;;;;;;6199068;23;20013;-86
2023/09/27 06:34:19;;;;;;;;;;;13.30;99.90;;;;;;6198331;23;20020;-87
2023/09/27 06:36:48;;;;;;;68.70;62.13;;;13.30;99.90;;;;;;6197635;23;20242;-87
2023/09/27 06:39:19;;;;;;;61.45;55.33;;;13.30;99.90;;;;;;6197017;23;20013;-86
2023/09/27 06:41:45;;;;;;;64.65;58.53;;;13.40;99.90;;;;;;6200142;23;20023;-85
2023/09/27 06:44:14;;;;;;;61.35;54.70;;;13.40;99.90;;;;;;6196699;23;20023;-82
2023/09/27 06:46:40;;;;;;;65.53;59.28;;;13.40;99.90;;;;;;6239264;23;20093;-83
2023/09/27 06:49:05;;;;;;;60.15;54.10;;;13.40;99.90;;;;;;6185678;23;20529;-82
2023/09/27 06:51:31;;;;;;;67.75;61.35;;;13.70;99.90;;;;;;6187204;23;20344;-82
2023/09/27 06:53:57;;;;;;;60.50;54.53;;;13.60;99.90;;;;;;6210319;23;20120;-82
2023/09/27 06:56:23;;;;;;;61.67;53.60;;;13.60;99.90;;;;;;6238661;23;20455;-86
2023/09/27 06:58:51;;;;;;;58.35;52.40;;;13.70;99.90;;;;;;6199155;23;20094;-86
2023/09/27 07:01:21;;;;;;;74.00;66.72;;;13.80;99.90;;;;;;6195956;23;20039;-86
2023/09/27 07:03:48;;;;;;;62.47;56.20;;;13.90;99.90;;;;;;6250590;23;20013;-86
2023/09/27 07:06:14;;;;;;;60.10;53.65;;;14.10;99.90;;;;;;6203589;23;20012;-87
2023/09/27 07:08:40;;;;;;;58.72;52.83;;;14.30;99.90;;;;;;6199827;23;20047;-86
2023/09/27 07:11:08;;;;;;;59.40;53.45;;;15.00;99.90;;;;;;6197469;23;20027;-85
2023/09/27 07:13:34;;;;;;;53.53;47.85;;;14.60;99.90;;;;;;6197673;23;20028;-86
2023/09/27 07:16:03;;;;;;;54.10;48.60;;;14.70;99.90;;;;;;6199903;23;20024;-85
2023/09/27 07:18:28;;;;;;;65.00;58.53;;;14.80;99.90;;;;;;6223615;23;20096;-87
2023/09/27 07:20:54;;;;;;;54.30;48.90;;;14.90;99.90;;;;;;6200365;23;20013;-86
2023/09/27 07:23:21;;;;;;;53.42;48.20;;;15.00;99.90;;;;;;6198613;23;20009;-85
2023/09/27 07:25:47;;;;;;;54.15;49.05;;;15.10;99.90;;;;;;6197096;23;20012;-84
2023/09/27 07:28:14;;;;;;;51.63;46.55;;;15.20;99.90;;;;;;6247037;23;20016;-85
2023/09/27 07:30:39;;;;;;;42.95;38.58;;;15.30;99.90;;;;;;6196135;23;20020;-85
2023/09/27 07:33:11;;;;;;;60.35;54.47;;;15.40;99.90;;;;;;6197864;23;20021;-85
2023/09/27 07:35:44;;;;;;;50.97;46.05;;;15.50;99.90;;;;;;6189137;23;20012;-83
2023/09/27 07:38:10;;;;;;;58.97;53.75;;;15.60;99.90;;;;;;6214086;23;20017;-85
2023/09/27 07:40:36;;;;;;;52.38;47.58;;;15.70;99.90;;;;;;6220276;23;20024;-85
2023/09/27 07:43:02;;;;;;;57.95;52.20;;;15.70;99.90;;;;;;6186844;23;20078;-81
2023/09/27 07:45:31;;;;;;;46.90;42.22;;;15.80;99.90;;;;;;6186778;23;20036;-84
2023/09/27 07:47:57;;;;;;;44.35;39.72;;;15.90;99.90;;;;;;6238593;23;20016;-84
2023/09/27 07:50:28;;;;;;;45.60;35.80;;;16.00;99.90;;;;;;6192860;23;20019;-82
2023/09/27 07:53:03;;;;;;;44.97;40.17;;;16.00;99.90;;;;;;6237721;23;20019;-84
2023/09/27 07:55:32;;;;;;;41.60;36.30;;;16.10;99.90;;;;;;6186379;23;20028;-85
2023/09/27 07:57:58;;;;;;;44.90;39.58;;;16.20;99.90;;;;;;6241056;23;20074;-87
2023/09/27 08:00:29;;;;;;;42.55;38.35;;;16.30;99.90;;;;;;6197290;23;20402;-84
2023/09/27 08:02:57;;;;;;;45.10;40.33;;;16.40;99.90;;;;;;6187573;23;20051;-82
2023/09/27 08:05:24;;;;;;;38.63;33.90;;;16.40;99.90;;;;;;6209475;23;20009;-80
2023/09/27 08:07:50;;;;;;;43.22;38.63;;;16.50;99.90;;;;;;6233486;22;20390;-80
2023/09/27 08:10:17;;;;;;;45.13;40.28;;;16.50;99.90;;;;;;6234639;23;20443;-80
2023/09/27 08:12:43;;;;;;;38.20;34.20;;;16.60;99.90;;;;;;6184026;23;20407;-80
2023/09/27 08:15:12;;;;;;;41.92;37.63;;;16.60;99.90;;;;;;6184217;23;20012;-80
2023/09/27 08:17:38;;;;;;;38.38;34.58;;;16.60;99.90;;;;;;6211033;23;20016;-81
2023/09/27 08:20:06;;;;;;;42.38;37.38;;;16.70;99.90;;;;;;6168969;23;20040;-85
2023/09/27 08:22:34;;;;;;;45.10;40.53;;;16.70;99.90;;;;;;6196419;23;20458;-86
2023/09/27 08:25:00;;;;;;;42.55;37.63;;;16.80;99.90;;;;;;6172733;23;20013;-85
2023/09/27 08:27:26;;;;;;;41.55;37.20;;;17.00;99.90;;;;;;6195370;23;20015;-84
2023/09/27 08:29:53;;;;;;;40.53;36.13;;;17.00;99.90;;;;;;6196226;23;20027;-86
2023/09/27 08:32:19;;;;;;;38.30;34.45;;;17.10;99.90;;;;;;6172146;23;20020;-84
2023/09/27 08:34:46;;;;;;;40.65;36.22;;;17.20;99.90;;;;;;6170931;23;20008;-82
2023/09/27 08:37:12;;;;;;;38.72;34.80;;;17.20;99.90;;;;;;6163450;23;20016;-84
2023/09/27 08:39:41;;;;;;;36.15;31.90;;;17.40;99.90;;;;;;6192687;23;20009;-84
2023/09/27 08:42:06;;;;;;;36.60;32.33;;;17.50;99.90;;;;;;6192205;23;20095;-85
2023/09/27 08:44:34;;;;;;;35.35;31.27;;;17.60;99.90;;;;;;6192396;23;20012;-86
2023/09/27 08:47:00;;;;;;;37.40;32.58;;;17.70;99.90;;;;;;6167068;23;20012;-84
2023/09/27 08:49:26;;;;;;;39.20;34.80;;;17.90;99.90;;;;;;6190403;23;20019;-84
2023/09/27 08:51:52;;;;;;;33.38;29.27;;;18.00;99.90;;;;;;6190120;23;20044;-84
2023/09/27 08:54:21;;;;;;;33.20;28.48;;;18.10;99.90;;;;;;6212333;23;20017;-84
2023/09/27 08:56:48;;;;;;;28.67;25.77;;;18.20;99.90;;;;;;6190840;23;20066;-85
2023/09/27 08:59:15;;;;;;;34.03;28.20;;;18.30;99.90;;;;;;6165769;23;20260;-85
2023/09/27 09:01:43;;;;;;;33.50;30.08;;;18.40;99.90;;;;;;6165866;23;20058;-84
2023/09/27 09:04:11;;;;;;;35.53;30.65;;;18.50;99.90;;;;;;6160211;23;20521;-81
2023/09/27 09:06:37;;;;;;;32.17;28.77;;;18.60;99.90;;;;;;6187470;23;20044;-80
2023/09/27 09:09:10;;;;;;;30.05;26.75;;;18.60;99.90;;;;;;6191189;23;20436;-85
2023/09/27 09:11:43;;;;;;;;;;;18.50;99.90;;;;;;6168356;23;20012;-85
2023/09/27 09:14:10;;;;;;;29.83;26.70;;;18.80;99.90;;;;;;6192729;23;19946;-84
2023/09/27 09:16:47;;;;;;;28.52;25.52;;;18.80;99.90;;;;;;6186256;23;20031;-85
2023/09/27 09:19:25;;;;;;;28.75;25.45;;;18.90;99.90;;;;;;6193981;23;20082;-85
2023/09/27 09:22:03;;;;;;;23.63;21.23;;;19.00;99.90;;;;;;6193635;23;20091;-85
2023/09/27 09:24:31;;;;;;;29.50;26.35;;;19.10;99.90;;;;;;6190541;23;20465;-84
2023/09/27 09:27:04;;;;;;;30.85;27.55;;;19.20;99.90;;;;;;6189962;23;20076;-84
2023/09/27 09:29:53;;;;;;;28.40;23.50;;;19.30;99.90;;;;;;6164572;23;20044;-84
2023/09/27 09:32:21;;;;;;;24.45;21.90;;;19.30;99.90;;;;;;6167889;23;20526;-85
2023/09/27 09:34:48;;;;;;;24.35;21.90;;;19.50;99.90;;;;;;6188809;23;20023;-84
2023/09/27 09:37:21;;;;;;;25.52;22.30;;;19.70;99.90;;;;;;6166022;23;20068;-84
2023/09/27 09:39:49;;;;;;;23.75;21.30;;;19.80;99.90;;;;;;6189814;23;20016;-84
2023/09/27 09:42:35;;;;;;;25.23;22.40;;;19.90;99.90;;;;;;6213082;23;20272;-83
2023/09/27 09:45:12;;;;;;;24.40;21.90;;;20.00;99.90;;;;;;6164152;23;20017;-84
2023/09/27 09:47:43;;;;;;;22.02;19.88;;;20.10;99.90;;;;;;6189041;23;20096;-80
2023/09/27 09:50:19;;;;;;;18.30;15.60;;;20.20;99.90;;;;;;6187782;23;20025;-86
2023/09/27 09:52:57;;;;;;;20.45;16.17;;;20.30;99.90;;;;;;6194666;23;20023;-85
2023/09/27 09:55:25;;;;;;;18.23;16.40;;;20.50;99.90;;;;;;6197550;23;20047;-85
2023/09/27 09:58:13;;;;;;;18.83;16.35;;;20.50;99.90;;;;;;6223392;23;20016;-86
2023/09/27 10:00:43;;;;;;;15.90;14.13;;;20.60;99.90;;;;;;6222029;23;20016;-84
2023/09/27 10:03:15;;;;;;;17.30;13.60;;;20.60;99.90;;;;;;6194634;23;20036;-85
2023/09/27 10:05:43;;;;;;;23.10;18.88;;;20.70;99.90;;;;;;6169942;23;20017;-85
2023/09/27 10:08:09;;;;;;;19.00;17.17;;;20.70;99.90;;;;;;6195395;23;20040;-85
2023/09/27 10:10:35;;;;;;;16.13;13.43;;;20.80;99.90;;;;;;6192606;23;20012;-84
2023/09/27 10:13:06;;;;;;;16.52;14.75;;;20.80;99.90;;;;;;6190575;23;20016;-83
2023/09/27 10:15:36;;;;;;;18.08;13.73;;;21.00;99.90;;;;;;6194944;23;20406;-83
2023/09/27 10:18:28;;;;;;;15.48;12.35;;;21.10;99.90;;;;;;6165457;23;20020;-83
2023/09/27 10:21:08;;;;;;;15.95;14.32;;;21.20;99.90;;;;;;6188409;23;20509;-83
2023/09/27 10:23:46;;;;;;;17.13;14.82;;;21.30;99.90;;;;;;6188797;23;20012;-83
2023/09/27 10:26:31;;;;;;;17.10;13.30;;;21.30;99.90;;;;;;6188090;23;20020;-85
2023/09/27 10:29:03;;;;;;;15.10;13.52;;;21.20;99.90;;;;;;6165682;23;20331;-84
2023/09/27 10:31:58;;;;;;;12.63;11.35;;;21.50;99.90;;;;;;6186426;23;20023;-83
2023/09/27 10:34:27;;;;;;;14.52;12.73;;;21.60;99.90;;;;;;6186626;23;20088;-84
2023/09/27 10:36:54;;;;;;;15.30;13.98;;;21.60;99.90;;;;;;6186459;23;20021;-80
2023/09/27 10:39:20;;;;;;;18.40;16.70;;;21.60;99.90;;;;;;6210433;23;20038;-80
2023/09/27 10:41:50;;;;;;;18.40;14.25;;;21.60;99.90;;;;;;6210741;23;20013;-81
2023/09/27 10:44:36;;;;;;;17.98;15.13;;;21.60;99.90;;;;;;6210451;23;20131;-81
2023/09/27 10:47:03;;;;;;;14.93;13.43;;;21.60;99.90;;;;;;6210508;23;20016;-81
2023/09/27 10:49:41;;;;;;;14.52;13.02;;;21.70;99.90;;;;;;6209719;23;20036;-80
2023/09/27 10:52:20;;;;;;;14.60;13.27;;;21.70;99.90;;;;;;6210097;23;20052;-81
2023/09/27 10:54:46;;;;;;;15.30;12.63;;;21.70;99.90;;;;;;6184771;23;20020;-80
2023/09/27 10:57:12;;;;;;;15.70;14.10;;;21.70;99.90;;;;;;6184827;23;20024;-80
2023/09/27 10:59:38;;;;;;;16.23;14.52;;;21.80;99.90;;;;;;6209741;23;20016;-80
2023/09/27 11:02:06;;;;;;;16.42;14.45;;;21.80;99.90;;;;;;6194057;23;20063;-86
2023/09/27 11:04:33;;;;;;;18.50;16.70;;;22.00;99.90;;;;;;6187264;23;20016;-86
2023/09/27 11:06:59;;;;;;;18.00;16.30;;;22.00;99.90;;;;;;6188191;23;20017;-87
2023/09/27 11:09:26;;;;;;;17.15;15.40;;;22.10;99.90;;;;;;6188115;23;20016;-86
2023/09/27 11:11:54;;;;;;;17.15;15.35;;;22.10;99.90;;;;;;6187793;23;20063;-86
2023/09/27 11:14:33;;;;;;;16.38;14.73;;;22.10;99.90;;;;;;6187950;23;20017;-87
2023/09/27 11:17:21;;;;;;;16.17;14.80;;;22.10;99.90;;;;;;6216036;23;20015;-86
2023/09/27 11:19:48;;;;;;;16.83;14.38;;;22.10;99.90;;;;;;6189590;23;20446;-81
2023/09/27 11:22:30;;;;;;;16.60;14.88;;;22.00;99.90;;;;;;6213620;23;20016;-80
2023/09/27 11:24:56;;;;;;;18.20;15.25;;;22.00;99.90;;;;;;6214208;23;20023;-81
2023/09/27 11:27:22;;;;;;;17.05;15.32;;;22.00;99.90;;;;;;6189221;23;20012;-81
2023/09/27 11:29:54;;;;;;;18.70;15.52;;;22.00;99.90;;;;;;6212750;23;20445;-81
2023/09/27 11:32:20;;;;;;;16.67;14.18;;;22.10;99.90;;;;;;6214372;23;20012;-81
2023/09/27 11:34:59;;;;;;;16.77;15.38;;;22.20;99.90;;;;;;6214301;23;20008;-81
2023/09/27 11:37:25;;;;;;;17.90;15.50;;;22.20;99.90;;;;;;6214822;23;20016;-82
2023/09/27 11:39:54;;;;;;;17.85;16.17;;;22.10;99.90;;;;;;6215728;23;20054;-88
2023/09/27 11:42:24;;;;;;;19.38;17.15;;;22.00;99.90;;;;;;6193246;23;20039;-86
2023/09/27 11:45:12;;;;;;;17.33;15.52;;;22.00;99.90;;;;;;6194277;23;20350;-89
2023/09/27 11:47:50;;;;;;;18.10;16.40;;;22.00;99.90;;;;;;6193584;23;20066;-87
2023/09/27 11:50:17;;;;;;;18.92;17.00;;;22.10;99.90;;;;;;6217552;23;20018;-87
2023/09/27 11:52:44;;;;;;;16.33;14.73;;;22.20;99.90;;;;;;6191899;23;20072;-87
2023/09/27 11:55:10;;;;;;;13.90;12.52;;;22.30;99.90;;;;;;6216230;23;20091;-86
2023/09/27 11:57:36;;;;;;;16.23;14.75;;;22.40;99.90;;;;;;6192599;23;20016;-86
2023/09/27 12:00:05;;;;;;;14.70;13.30;;;22.40;99.90;;;;;;6242314;23;20074;-85
2023/09/27 12:02:33;;;;;;;15.73;14.23;;;22.40;99.90;;;;;;6216439;23;20103;-85
2023/09/27 12:05:00;;;;;;;17.30;15.35;;;22.40;99.90;;;;;;6216913;23;20343;-87
2023/09/27 12:07:27;;;;;;;18.65;16.40;;;22.40;99.90;;;;;;6190314;23;20459;-86
2023/09/27 12:09:54;;;;;;;16.17;14.23;;;22.40;99.90;;;;;;6242496;23;20332;-85
2023/09/27 12:12:20;;;;;;;15.27;13.98;;;22.30;99.90;;;;;;6216046;23;20012;-83
2023/09/27 12:14:46;;;;;;;17.20;15.40;;;22.20;99.90;;;;;;6190325;23;20450;-84
2023/09/27 12:17:12;;;;;;;17.70;15.93;;;22.10;99.90;;;;;;6190564;23;20027;-83
2023/09/27 12:19:38;;;;;;;17.83;15.93;;;22.00;99.90;;;;;;6214504;23;20087;-83
2023/09/27 12:22:05;;;;;;;16.40;14.88;;;22.00;99.90;;;;;;6216098;23;20020;-84
2023/09/27 12:24:31;;;;;;;19.10;15.82;;;22.10;99.90;;;;;;6241187;23;20082;-83
2023/09/27 12:26:57;;;;;;;18.60;16.63;;;22.10;99.90;;;;;;6215241;23;20431;-84
2023/09/27 12:29:22;;;;;;;24.05;17.27;;;22.20;99.90;;;;;;6214287;23;20016;-78
2023/09/27 12:31:48;;;;;;;18.52;16.05;;;22.30;99.90;;;;;;6213954;23;20008;-81